Time;durP1;ratioP1;P1;durP2;ratioP2;P2;SDS_P1;SDS_P2;PMS_P1;PMS_P2;Temp;Humidity;BMP_temperature;BMP_pressure;BME280_temperature;BME280_humidity;BME280_pressure;Samples;Min_cycle;Max_cycle;Signal;HPM_P1;HPM_P2
2023/04/09 00:01:12;;;;;;;25.95;16.75;;;10.10;99.90;;;;;;4980912;28;20285;-79
2023/04/09 00:03:39;;;;;;;22.75;16.63;;;10.10;99.90;;;;;;5019973;28;20482;-75
2023/04/09 00:06:05;;;;;;;26.50;18.13;;;10.10;99.90;;;;;;5009543;28;20040;-79
2023/04/09 00:08:31;;;;;;;29.73;20.27;;;10.10;99.90;;;;;;4979452;28;20036;-78
2023/04/09 00:10:58;;;;;;;32.13;22.85;;;10.10;99.90;;;;;;4990930;28;21007;-76
2023/04/09 00:13:25;;;;;;;35.90;24.98;;;10.10;99.90;;;;;;5026347;28;20036;-74
2023/04/09 00:15:51;;;;;;;38.88;28.08;;;10.10;99.90;;;;;;5032688;28;20072;-79
2023/04/09 00:18:18;;;;;;;38.75;26.55;;;10.10;99.90;;;;;;5012421;28;20043;-76
2023/04/09 00:20:44;;;;;;;32.08;22.23;;;10.10;99.90;;;;;;5007333;28;20495;-76
2023/04/09 00:23:10;;;;;;;32.88;22.85;;;10.10;99.90;;;;;;4984931;28;20059;-79
2023/04/09 00:25:37;;;;;;;30.60;21.00;;;10.00;99.90;;;;;;4992338;28;20487;-76
2023/04/09 00:28:03;;;;;;;31.75;22.25;;;10.10;99.90;;;;;;5027932;28;20032;-78
2023/04/09 00:30:29;;;;;;;32.55;22.77;;;10.10;99.90;;;;;;4975703;28;20492;-77
2023/04/09 00:32:56;;;;;;;35.15;23.38;;;10.10;99.90;;;;;;5023881;28;20371;-77
2023/04/09 00:35:23;;;;;;;24.58;17.15;;;10.00;99.90;;;;;;5011363;28;20032;-74
2023/04/09 00:37:49;;;;;;;35.53;22.88;;;10.00;99.90;;;;;;5012818;28;20507;-76
2023/04/09 00:40:16;;;;;;;35.25;24.45;;;10.10;99.90;;;;;;5009090;28;20040;-76
2023/04/09 00:42:42;;;;;;;29.15;20.45;;;10.10;99.90;;;;;;4972215;28;20511;-78
2023/04/09 00:45:09;;;;;;;35.03;24.15;;;10.10;99.90;;;;;;4993119;28;20705;-79
2023/04/09 00:47:35;;;;;;;33.58;22.55;;;10.00;99.90;;;;;;5024565;28;20040;-74
2023/04/09 00:50:02;;;;;;;40.00;25.55;;;10.00;99.90;;;;;;4991508;28;20059;-76
2023/04/09 00:52:31;;;;;;;31.88;21.30;;;10.00;99.90;;;;;;5001271;28;20063;-80
2023/04/09 00:55:00;;;;;;;29.42;20.15;;;10.00;99.90;;;;;;5009226;28;20380;-76
2023/04/09 00:57:27;;;;;;;26.40;19.25;;;10.00;99.90;;;;;;4981297;28;20040;-81
2023/04/09 00:59:54;;;;;;;34.63;25.08;;;10.00;99.90;;;;;;5011913;28;20036;-75
2023/04/09 01:02:21;;;;;;;32.78;22.85;;;10.10;99.90;;;;;;4998751;28;20033;-77
2023/04/09 01:04:48;;;;;;;28.33;19.45;;;10.10;99.90;;;;;;5008463;28;20037;-79
2023/04/09 01:07:45;;;;;;;38.75;25.35;;;10.00;99.90;;;;;;5009557;28;20036;-75
2023/04/09 01:10:42;;;;;;;34.35;23.33;;;10.10;99.90;;;;;;4992783;28;20048;-74
2023/04/09 01:13:17;;;;;;;38.97;24.65;;;10.10;99.90;;;;;;4999115;28;20036;-77
2023/04/09 01:15:56;;;;;;;42.42;29.25;;;10.00;99.90;;;;;;4991480;28;20638;-79
2023/04/09 01:18:35;;;;;;;30.73;21.13;;;10.00;99.90;;;;;;5013655;28;20037;-77
2023/04/09 01:21:10;;;;;;;36.13;24.83;;;10.00;99.90;;;;;;5008957;28;20044;-76
2023/04/09 01:23:51;;;;;;;32.55;21.60;;;10.00;99.90;;;;;;4986848;28;21138;-74
2023/04/09 01:26:21;;;;;;;27.60;17.85;;;10.00;99.90;;;;;;4987417;28;20029;-76
2023/04/09 01:28:54;;;;;;;25.88;19.35;;;10.00;99.90;;;;;;4990213;28;20479;-77
2023/04/09 01:31:28;;;;;;;31.27;22.10;;;10.00;99.90;;;;;;4988631;28;20493;-75
2023/04/09 01:33:56;;;;;;;26.65;19.42;;;10.00;99.90;;;;;;4971591;28;20041;-74
2023/04/09 01:36:25;;;;;;;27.13;20.73;;;10.00;99.90;;;;;;5027208;28;20044;-75
2023/04/09 01:38:52;;;;;;;31.90;23.38;;;9.90;99.90;;;;;;4992453;28;20029;-77
2023/04/09 01:41:20;;;;;;;33.40;24.27;;;9.90;99.90;;;;;;5008951;28;20033;-75
2023/04/09 01:43:49;;;;;;;32.28;24.23;;;9.90;99.90;;;;;;5022264;28;20376;-79
2023/04/09 01:46:18;;;;;;;35.97;25.50;;;9.90;99.90;;;;;;4974840;28;20046;-74
2023/04/09 01:48:45;;;;;;;31.85;21.02;;;9.90;99.90;;;;;;5023456;28;20032;-78
2023/04/09 01:51:13;;;;;;;26.58;19.45;;;9.80;99.90;;;;;;5022559;28;20533;-79
2023/04/09 01:53:40;;;;;;;24.48;18.48;;;9.80;99.90;;;;;;5002016;28;20475;-78
2023/04/09 01:56:08;;;;;;;24.08;18.05;;;9.80;99.90;;;;;;4995110;28;20036;-78
2023/04/09 01:58:35;;;;;;;26.15;17.75;;;9.90;99.90;;;;;;4998514;28;20040;-76
2023/04/09 02:01:11;;;;;;;22.90;17.15;;;9.90;99.90;;;;;;5013662;28;20425;-80
2023/04/09 02:03:47;;;;;;;25.38;19.70;;;9.90;99.90;;;;;;5007762;28;20033;-82
2023/04/09 02:06:26;;;;;;;30.58;21.17;;;9.90;99.90;;;;;;5010944;28;20589;-75
2023/04/09 02:08:53;;;;;;;25.70;19.17;;;9.90;99.90;;;;;;4994860;28;20051;-81
2023/04/09 02:11:22;;;;;;;24.75;18.15;;;9.90;99.90;;;;;;5028886;28;20032;-75
2023/04/09 02:13:51;;;;;;;25.92;18.58;;;9.90;99.90;;;;;;5025964;28;20041;-77
2023/04/09 02:16:19;;;;;;;22.30;16.23;;;9.90;99.90;;;;;;4994767;28;20936;-79
2023/04/09 02:18:45;;;;;;;25.67;18.08;;;9.90;99.90;;;;;;4994186;28;20292;-74
2023/04/09 02:21:12;;;;;;;22.67;17.13;;;9.90;99.90;;;;;;4995992;28;20052;-77
2023/04/09 02:23:39;;;;;;;25.85;18.02;;;9.90;99.90;;;;;;5024715;28;20055;-75
2023/04/09 02:26:05;;;;;;;25.23;18.27;;;9.90;99.90;;;;;;4993878;28;20033;-78
2023/04/09 02:28:32;;;;;;;29.92;22.38;;;9.90;99.90;;;;;;4995274;28;20075;-77
2023/04/09 02:30:58;;;;;;;28.45;20.40;;;9.90;99.90;;;;;;5008625;28;20044;-80
2023/04/09 02:33:24;;;;;;;22.88;17.38;;;9.90;99.90;;;;;;4988789;28;20032;-76
2023/04/09 02:35:50;;;;;;;24.35;18.70;;;9.90;99.90;;;;;;4993666;28;20545;-76
2023/04/09 02:38:18;;;;;;;22.67;17.13;;;9.80;99.90;;;;;;4982746;28;20028;-77
2023/04/09 02:40:45;;;;;;;25.20;17.58;;;9.80;99.90;;;;;;5012540;28;20032;-78
2023/04/09 02:43:11;;;;;;;28.98;20.52;;;9.80;99.90;;;;;;5009588;28;20043;-74
2023/04/09 02:45:37;;;;;;;25.98;19.52;;;9.90;99.90;;;;;;4995430;28;20043;-76
2023/04/09 02:48:04;;;;;;;24.17;18.05;;;9.90;99.90;;;;;;4978021;28;20475;-81
2023/04/09 02:50:34;;;;;;;26.13;18.95;;;9.80;99.90;;;;;;4976122;28;20377;-76
2023/04/09 02:53:00;;;;;;;25.33;18.05;;;9.90;99.90;;;;;;5006503;28;20033;-78
2023/04/09 02:55:27;;;;;;;24.90;17.70;;;9.80;99.90;;;;;;5011031;28;20131;-74
2023/04/09 02:57:53;;;;;;;30.60;21.60;;;9.80;99.90;;;;;;5013802;28;20028;-74
2023/04/09 03:00:20;;;;;;;29.83;20.35;;;9.80;99.90;;;;;;5009992;28;20048;-79
2023/04/09 03:02:46;;;;;;;27.40;19.85;;;9.80;99.90;;;;;;5007459;28;20466;-77
2023/04/09 03:05:12;;;;;;;29.42;20.88;;;9.80;99.90;;;;;;5028079;28;20040;-75
2023/04/09 03:07:39;;;;;;;24.02;16.85;;;9.80;99.90;;;;;;5008543;28;20068;-77
2023/04/09 03:10:05;;;;;;;24.60;17.88;;;9.80;99.90;;;;;;5006892;28;20033;-76
2023/04/09 03:12:31;;;;;;;23.83;16.85;;;9.70;99.90;;;;;;5002702;28;20040;-74
2023/04/09 03:14:58;;;;;;;23.88;16.45;;;9.80;99.90;;;;;;5013253;28;21220;-76
2023/04/09 03:17:26;;;;;;;24.48;17.88;;;9.80;99.90;;;;;;5032628;28;20029;-78
2023/04/09 03:19:52;;;;;;;24.25;16.17;;;9.80;99.90;;;;;;5038957;28;20043;-75
2023/04/09 03:22:20;;;;;;;24.75;18.63;;;9.80;99.90;;;;;;5013092;28;20037;-76
2023/04/09 03:24:49;;;;;;;29.13;21.50;;;9.70;99.90;;;;;;5014118;28;20028;-74
2023/04/09 03:27:15;;;;;;;28.90;20.90;;;9.70;99.90;;;;;;5010800;28;20037;-74
2023/04/09 03:29:42;;;;;;;26.15;19.70;;;9.70;99.90;;;;;;5022686;28;20479;-77
2023/04/09 03:32:09;;;;;;;24.08;17.50;;;9.70;99.90;;;;;;5002140;28;20418;-77
2023/04/09 03:34:35;;;;;;;31.80;23.17;;;9.70;99.90;;;;;;5025830;28;20071;-74
2023/04/09 03:37:01;;;;;;;33.00;24.00;;;9.70;99.90;;;;;;5027845;28;20590;-81
2023/04/09 03:39:30;;;;;;;33.20;24.20;;;9.70;99.90;;;;;;4994339;28;20028;-76
2023/04/09 03:41:57;;;;;;;32.70;23.02;;;9.60;99.90;;;;;;5008393;28;20036;-75
2023/04/09 03:44:26;;;;;;;28.48;19.42;;;9.60;99.90;;;;;;5006969;28;20021;-76
2023/04/09 03:47:08;;;;;;;31.30;21.02;;;9.60;99.90;;;;;;5009538;28;20067;-76
2023/04/09 03:49:36;;;;;;;26.98;19.25;;;9.60;99.90;;;;;;5010715;28;20372;-75
2023/04/09 03:52:25;;;;;;;31.73;21.85;;;9.60;99.90;;;;;;4988204;28;20612;-77
2023/04/09 03:54:58;;;;;;;25.27;18.65;;;9.60;99.90;;;;;;4992775;28;20119;-79
2023/04/09 03:57:26;;;;;;;25.38;17.75;;;9.50;99.90;;;;;;5008965;28;20461;-74
2023/04/09 03:59:54;;;;;;;28.52;20.73;;;9.60;99.90;;;;;;4994168;28;20703;-77
2023/04/09 04:02:22;;;;;;;26.17;18.52;;;9.50;99.90;;;;;;4992249;28;20974;-76
2023/04/09 04:04:57;;;;;;;27.38;20.05;;;9.50;99.90;;;;;;5012561;28;20744;-75
2023/04/09 04:07:28;;;;;;;29.25;21.00;;;9.50;99.90;;;;;;5010706;28;20056;-76
2023/04/09 04:09:59;;;;;;;27.07;19.47;;;9.50;99.90;;;;;;5009196;28;21216;-74
2023/04/09 04:12:25;;;;;;;30.52;21.50;;;9.50;99.90;;;;;;4987773;28;20383;-73
2023/04/09 04:15:15;;;;;;;26.23;18.73;;;9.50;99.90;;;;;;4994813;28;20051;-81
2023/04/09 04:17:46;;;;;;;27.95;19.35;;;9.40;99.90;;;;;;4993955;28;20047;-76
2023/04/09 04:20:26;;;;;;;29.75;21.00;;;9.40;99.90;;;;;;5008207;28;20056;-76
2023/04/09 04:23:01;;;;;;;31.17;22.55;;;9.40;99.90;;;;;;4994707;28;20356;-77
2023/04/09 04:25:29;;;;;;;26.20;19.38;;;9.40;99.90;;;;;;4989031;28;20121;-78
2023/04/09 04:27:56;;;;;;;30.27;22.13;;;9.40;99.90;;;;;;5008548;28;20491;-77
2023/04/09 04:30:29;;;;;;;28.58;20.25;;;9.40;99.90;;;;;;5005654;28;20112;-81
2023/04/09 04:33:03;;;;;;;29.30;20.67;;;9.30;99.90;;;;;;5002824;28;20028;-77
2023/04/09 04:35:37;;;;;;;32.95;23.77;;;9.30;99.90;;;;;;5009194;28;20695;-75
2023/04/09 04:38:06;;;;;;;28.83;20.55;;;9.30;99.90;;;;;;5007707;28;20047;-78
2023/04/09 04:40:36;;;;;;;28.45;20.55;;;9.20;99.90;;;;;;5008000;28;20032;-76
2023/04/09 04:43:02;;;;;;;32.40;24.45;;;9.20;99.90;;;;;;5005611;28;20041;-77
2023/04/09 04:45:28;;;;;;;30.58;21.55;;;9.20;99.90;;;;;;5010304;28;20492;-75
2023/04/09 04:48:01;;;;;;;;;;;9.20;99.90;;;;;;4994579;28;20040;-80
2023/04/09 04:50:27;;;;;;;29.77;20.77;;;9.20;99.90;;;;;;5008763;28;19924;-79
2023/04/09 04:53:03;;;;;;;32.88;22.92;;;9.10;99.90;;;;;;4989143;28;20041;-75
2023/04/09 04:55:36;;;;;;;30.27;21.13;;;9.10;99.90;;;;;;4992635;28;20033;-76
2023/04/09 04:58:03;;;;;;;29.77;21.10;;;9.00;99.90;;;;;;5010981;28;20036;-76
2023/04/09 05:00:38;;;;;;;34.97;24.33;;;9.00;99.90;;;;;;5008060;28;20033;-78
2023/04/09 05:03:04;;;;;;;30.98;22.83;;;8.90;99.90;;;;;;5008761;28;20055;-73
2023/04/09 05:05:47;;;;;;;29.15;21.13;;;8.80;99.90;;;;;;4995183;28;20028;-74
2023/04/09 05:08:14;;;;;;;35.95;24.50;;;8.70;99.90;;;;;;5010617;28;20037;-80
2023/04/09 05:10:45;;;;;;;32.55;22.75;;;8.60;99.90;;;;;;5005434;28;20395;-77
2023/04/09 05:13:12;;;;;;;32.17;22.67;;;8.60;99.90;;;;;;5002222;28;20040;-74
2023/04/09 05:15:40;;;;;;;27.45;18.55;;;8.40;99.90;;;;;;5024053;28;20032;-77
2023/04/09 05:18:07;;;;;;;27.05;17.60;;;8.30;99.90;;;;;;4992016;28;20044;-80
2023/04/09 05:20:35;;;;;;;26.40;17.92;;;8.20;99.90;;;;;;5005664;28;20060;-76
2023/04/09 05:23:11;;;;;;;23.92;16.15;;;8.10;99.90;;;;;;5007625;28;20040;-78
2023/04/09 05:25:41;;;;;;;28.63;19.42;;;8.00;99.90;;;;;;4997182;28;20032;-77
2023/04/09 05:28:15;;;;;;;26.80;18.70;;;8.00;99.90;;;;;;5015475;28;20041;-77
2023/04/09 05:30:46;;;;;;;26.40;18.38;;;7.90;99.90;;;;;;5000489;28;20135;-80
2023/04/09 05:33:13;;;;;;;27.85;19.10;;;7.90;99.90;;;;;;5006572;28;20032;-75
2023/04/09 05:35:39;;;;;;;29.63;20.25;;;7.90;99.90;;;;;;5031788;28;20629;-77
2023/04/09 05:38:06;;;;;;;28.15;18.73;;;7.80;99.90;;;;;;5012468;28;20036;-79
2023/04/09 05:40:33;;;;;;;25.73;18.40;;;7.80;99.90;;;;;;4995969;28;20052;-75
2023/04/09 05:43:00;;;;;;;25.27;17.27;;;7.80;99.90;;;;;;5010704;28;20294;-75
2023/04/09 05:45:36;;;;;;;21.42;15.52;;;7.80;99.90;;;;;;5017130;28;20390;-75
2023/04/09 05:48:03;;;;;;;30.90;19.33;;;7.80;99.90;;;;;;5013854;28;23221;-77
2023/04/09 05:50:29;;;;;;;29.50;18.80;;;7.70;99.90;;;;;;4997415;28;20078;-78
2023/04/09 05:52:56;;;;;;;31.67;20.75;;;7.80;99.90;;;;;;5006199;28;20040;-76
2023/04/09 05:55:30;;;;;;;28.20;19.40;;;7.80;99.90;;;;;;4999763;28;20043;-78
2023/04/09 05:57:59;;;;;;;30.13;21.23;;;7.90;99.90;;;;;;5012497;28;20056;-78
2023/04/09 06:00:26;;;;;;;30.63;20.75;;;7.90;99.90;;;;;;4993947;28;20094;-79
2023/04/09 06:02:52;;;;;;;30.27;19.98;;;8.00;99.90;;;;;;5005921;28;20033;-76
2023/04/09 06:05:19;;;;;;;36.35;23.98;;;8.10;99.90;;;;;;5016121;28;20462;-78
2023/04/09 06:07:47;;;;;;;31.17;20.52;;;8.30;99.90;;;;;;4980158;28;20029;-75
2023/04/09 06:10:14;;;;;;;34.60;22.90;;;8.40;99.90;;;;;;4990935;28;20336;-74
2023/04/09 06:12:41;;;;;;;31.67;21.13;;;8.50;99.90;;;;;;5004409;28;20040;-82
2023/04/09 06:15:09;;;;;;;29.38;19.52;;;8.60;99.90;;;;;;5013356;28;20028;-75
2023/04/09 06:17:35;;;;;;;34.33;22.67;;;8.70;99.90;;;;;;5012518;28;21389;-78
2023/04/09 06:20:01;;;;;;;32.92;22.98;;;8.80;99.90;;;;;;5009006;28;20041;-75
2023/04/09 06:22:28;;;;;;;33.17;22.08;;;8.80;99.90;;;;;;5025412;28;20028;-75
2023/04/09 06:24:54;;;;;;;33.33;22.85;;;8.90;99.90;;;;;;5033292;28;20029;-80
2023/04/09 06:27:21;;;;;;;33.70;21.88;;;9.00;99.90;;;;;;5033013;28;20044;-75
2023/04/09 06:29:47;;;;;;;31.80;21.40;;;9.00;99.90;;;;;;5031585;28;20033;-75
2023/04/09 06:32:14;;;;;;;37.78;24.35;;;9.10;99.90;;;;;;5002479;28;20044;-75
2023/04/09 06:34:40;;;;;;;34.70;22.08;;;9.10;99.90;;;;;;4992177;28;20072;-79
2023/04/09 06:37:06;;;;;;;33.58;22.60;;;9.20;99.90;;;;;;5030719;28;20045;-75
2023/04/09 06:39:33;;;;;;;35.50;23.15;;;9.30;99.90;;;;;;5007994;28;20043;-79
2023/04/09 06:41:59;;;;;;;30.60;21.38;;;9.30;99.90;;;;;;5005428;28;20047;-78
2023/04/09 06:44:38;;;;;;;31.83;20.70;;;9.30;99.90;;;;;;5014521;28;20055;-77
2023/04/09 06:47:04;;;;;;;34.25;23.33;;;9.30;99.90;;;;;;5013903;28;20036;-76
2023/04/09 06:49:30;;;;;;;34.75;23.05;;;9.30;99.90;;;;;;4983629;28;20580;-76
2023/04/09 06:51:57;;;;;;;32.50;21.55;;;9.50;99.90;;;;;;5026602;28;21505;-74
2023/04/09 06:54:23;;;;;;;34.03;23.25;;;9.60;99.90;;;;;;5025879;28;20048;-77
2023/04/09 06:56:50;;;;;;;36.00;24.00;;;9.60;99.90;;;;;;4993652;28;20036;-75
2023/04/09 06:59:17;;;;;;;34.45;23.30;;;9.70;99.90;;;;;;4994437;28;20051;-76
2023/04/09 07:01:43;;;;;;;30.15;21.48;;;9.70;99.90;;;;;;5008361;28;20387;-80
2023/04/09 07:04:09;;;;;;;33.80;22.95;;;9.80;99.90;;;;;;5024953;28;20036;-80
2023/04/09 07:06:36;;;;;;;33.72;24.73;;;9.80;99.90;;;;;;5033271;28;20048;-76
2023/04/09 07:09:02;;;;;;;33.05;21.52;;;9.90;99.90;;;;;;5014508;28;20391;-79
2023/04/09 07:11:28;;;;;;;32.13;21.05;;;9.90;99.90;;;;;;5029275;28;20040;-77
2023/04/09 07:13:55;;;;;;;31.73;22.58;;;9.90;99.90;;;;;;5006477;28;20040;-78
2023/04/09 07:16:22;;;;;;;30.90;21.10;;;10.00;99.90;;;;;;5029421;28;20037;-74
2023/04/09 07:18:48;;;;;;;32.50;20.30;;;10.10;99.90;;;;;;5027714;28;20588;-75
2023/04/09 07:21:15;;;;;;;32.72;22.77;;;10.20;99.90;;;;;;5007430;28;20048;-77
2023/04/09 07:23:41;;;;;;;26.73;19.25;;;10.30;99.90;;;;;;5023851;28;20045;-79
2023/04/09 07:26:08;;;;;;;31.98;22.45;;;10.40;99.90;;;;;;5031823;28;20032;-76
2023/04/09 07:28:35;;;;;;;33.75;24.17;;;10.50;99.90;;;;;;5034105;28;20029;-78
2023/04/09 07:31:01;;;;;;;27.10;19.70;;;10.60;99.90;;;;;;5030528;28;20048;-78
2023/04/09 07:33:28;;;;;;;31.60;22.45;;;10.70;99.90;;;;;;4988988;28;20762;-78
2023/04/09 07:35:55;;;;;;;31.55;22.52;;;10.80;99.90;;;;;;5032219;28;20032;-74
2023/04/09 07:38:21;;;;;;;34.70;22.55;;;10.80;99.90;;;;;;5002296;28;20057;-79
2023/04/09 07:40:48;;;;;;;33.20;21.58;;;10.90;99.90;;;;;;5015263;28;20487;-76
2023/04/09 07:43:14;;;;;;;28.73;19.77;;;11.00;99.90;;;;;;5007478;28;20056;-77
2023/04/09 07:45:40;;;;;;;28.13;19.38;;;11.10;99.90;;;;;;5032731;28;21574;-77
2023/04/09 07:48:08;;;;;;;28.05;20.40;;;11.10;99.90;;;;;;5014772;28;20041;-77
2023/04/09 07:50:35;;;;;;;31.27;21.85;;;11.30;99.90;;;;;;5013640;28;20494;-79
2023/04/09 07:53:01;;;;;;;30.95;20.67;;;11.40;99.90;;;;;;5024723;28;20043;-74
2023/04/09 07:55:27;;;;;;;24.60;17.88;;;11.50;99.90;;;;;;5011976;28;20029;-76
2023/04/09 07:57:54;;;;;;;30.67;22.02;;;11.60;99.90;;;;;;5008994;28;20032;-76
2023/04/09 08:00:20;;;;;;;32.42;22.70;;;11.70;99.90;;;;;;5027672;28;20790;-77
2023/04/09 08:02:47;;;;;;;30.00;21.63;;;11.70;99.90;;;;;;4988431;28;20817;-75
2023/04/09 08:05:13;;;;;;;36.35;25.67;;;11.70;99.90;;;;;;5029986;28;20032;-75
2023/04/09 08:07:39;;;;;;;28.80;19.80;;;11.80;99.90;;;;;;5011107;28;20554;-76
2023/04/09 08:10:06;;;;;;;25.00;18.48;;;11.90;99.90;;;;;;5030739;28;20052;-82
2023/04/09 08:12:33;;;;;;;28.85;21.00;;;11.90;99.90;;;;;;5025012;28;20045;-75
2023/04/09 08:14:59;;;;;;;29.27;21.10;;;12.10;99.90;;;;;;4994483;28;20040;-78
2023/04/09 08:17:26;;;;;;;26.23;18.67;;;12.10;99.90;;;;;;5028175;28;20040;-77
2023/04/09 08:19:52;;;;;;;31.50;22.90;;;12.20;99.90;;;;;;5029345;28;20067;-76
2023/04/09 08:22:18;;;;;;;30.17;22.58;;;12.30;99.90;;;;;;5004267;28;20033;-79
2023/04/09 08:24:50;;;;;;;24.65;19.15;;;12.30;99.90;;;;;;5010090;28;20048;-74
2023/04/09 08:27:17;;;;;;;25.70;19.75;;;12.30;99.90;;;;;;5030904;28;22999;-79
2023/04/09 08:29:43;;;;;;;25.25;18.88;;;12.30;99.90;;;;;;5031219;28;20033;-76
2023/04/09 08:32:10;;;;;;;23.83;18.10;;;12.40;99.90;;;;;;5027717;28;20723;-75
2023/04/09 08:34:36;;;;;;;27.60;19.52;;;12.50;99.90;;;;;;4996101;28;20036;-81
2023/04/09 08:37:02;;;;;;;22.98;17.25;;;12.60;99.90;;;;;;5028334;28;20036;-75
2023/04/09 08:39:29;;;;;;;23.65;17.77;;;12.70;99.90;;;;;;5028548;28;20039;-79
2023/04/09 08:42:00;;;;;;;20.52;16.02;;;12.90;99.90;;;;;;5025595;28;20032;-77
2023/04/09 08:44:27;;;;;;;22.63;17.13;;;13.10;99.90;;;;;;4971715;28;20051;-76
2023/04/09 08:46:54;;;;;;;21.40;15.95;;;13.20;99.90;;;;;;5010357;28;20025;-80
2023/04/09 08:49:21;;;;;;;24.65;16.85;;;13.30;99.90;;;;;;5032254;28;20067;-74
2023/04/09 08:51:48;;;;;;;21.35;16.20;;;13.50;99.90;;;;;;5011258;28;21231;-75
2023/04/09 08:54:17;;;;;;;23.23;17.55;;;13.50;99.90;;;;;;5015950;28;20044;-76
2023/04/09 08:56:44;;;;;;;20.55;16.13;;;13.50;99.90;;;;;;5028821;28;20381;-77
2023/04/09 08:59:10;;;;;;;22.77;17.02;;;13.60;99.90;;;;;;5009632;28;20413;-75
2023/04/09 09:01:36;;;;;;;18.30;14.48;;;13.70;99.90;;;;;;5026771;28;20032;-77
2023/04/09 09:04:05;;;;;;;23.95;16.95;;;13.80;99.90;;;;;;5002444;28;20024;-77
2023/04/09 09:06:34;;;;;;;20.77;16.50;;;13.90;99.90;;;;;;5010293;28;20044;-75
2023/04/09 09:09:07;;;;;;;22.38;17.98;;;14.10;99.90;;;;;;5031292;28;20028;-76
2023/04/09 09:11:45;;;;;;;22.25;16.70;;;14.10;99.90;;;;;;5030326;28;20073;-75
2023/04/09 09:14:13;;;;;;;21.58;16.35;;;14.10;99.90;;;;;;4987252;28;20040;-81
2023/04/09 09:16:42;;;;;;;19.80;16.33;;;14.10;99.90;;;;;;4989439;28;20405;-79
2023/04/09 09:19:27;;;;;;;20.05;14.85;;;14.10;99.90;;;;;;5025936;28;20442;-74
2023/04/09 09:22:02;;;;;;;17.58;13.20;;;14.20;99.90;;;;;;4986194;28;20084;-75
2023/04/09 09:24:31;;;;;;;18.05;13.65;;;14.20;99.90;;;;;;5003251;28;20040;-74
2023/04/09 09:26:57;;;;;;;17.85;13.65;;;14.40;99.90;;;;;;5027931;28;20495;-75
2023/04/09 09:29:24;;;;;;;15.60;11.25;;;14.50;99.90;;;;;;5030944;28;20036;-75
2023/04/09 09:31:53;;;;;;;16.42;13.38;;;14.60;99.90;;;;;;5009925;28;20036;-77
2023/04/09 09:34:21;;;;;;;18.40;13.40;;;14.80;99.90;;;;;;5004253;28;22950;-76
2023/04/09 09:36:47;;;;;;;16.05;12.60;;;14.80;99.90;;;;;;5024866;28;20048;-80
2023/04/09 09:39:16;;;;;;;14.05;10.55;;;14.80;99.90;;;;;;5025587;28;20040;-74
2023/04/09 09:41:44;;;;;;;19.60;13.63;;;15.00;99.90;;;;;;5005862;28;20047;-80
2023/04/09 09:44:28;;;;;;;14.38;11.18;;;15.10;99.90;;;;;;5022056;28;20037;-75
2023/04/09 09:46:56;;;;;;;16.17;12.02;;;15.20;99.90;;;;;;5005317;28;20490;-76
2023/04/09 09:49:22;;;;;;;13.02;9.65;;;15.30;99.90;;;;;;5010039;28;20029;-75
2023/04/09 09:51:49;;;;;;;13.68;10.43;;;15.30;99.90;;;;;;5029802;28;20594;-76
2023/04/09 09:54:21;;;;;;;14.40;11.48;;;15.50;99.90;;;;;;5024675;28;20040;-77
2023/04/09 09:56:51;;;;;;;12.57;9.70;;;15.60;99.90;;;;;;5008527;28;23253;-76
2023/04/09 09:59:21;;;;;;;14.98;11.85;;;15.70;99.90;;;;;;5021310;28;20408;-77
2023/04/09 10:01:54;;;;;;;13.23;11.05;;;15.70;99.90;;;;;;4989148;28;20032;-76
2023/04/09 10:04:23;;;;;;;14.85;11.45;;;15.70;99.90;;;;;;5022583;28;20037;-76
2023/04/09 10:06:50;;;;;;;13.60;11.32;;;15.80;99.90;;;;;;4990494;28;20048;-74
2023/04/09 10:09:20;;;;;;;15.18;12.10;;;15.90;99.90;;;;;;5009437;28;20507;-76
2023/04/09 10:11:48;;;;;;;16.33;12.10;;;16.10;99.90;;;;;;5029984;28;20037;-73
2023/04/09 10:14:16;;;;;;;16.20;12.95;;;16.10;99.90;;;;;;5025992;28;20056;-74
2023/04/09 10:16:43;;;;;;;16.88;12.55;;;16.30;99.90;;;;;;5010836;28;20028;-80
2023/04/09 10:19:12;;;;;;;16.65;12.85;;;16.40;99.90;;;;;;5012077;28;20472;-77
2023/04/09 10:21:53;;;;;;;20.08;13.57;;;16.50;99.90;;;;;;5029238;28;20055;-75
2023/04/09 10:24:20;;;;;;;16.52;12.68;;;16.70;99.90;;;;;;5025534;28;20510;-75
2023/04/09 10:26:46;;;;;;;16.20;13.18;;;16.90;99.90;;;;;;5031039;28;20044;-73
2023/04/09 10:29:15;;;;;;;17.55;14.18;;;17.00;99.90;;;;;;5011535;28;20052;-75
2023/04/09 10:31:53;;;;;;;14.68;11.50;;;17.20;99.90;;;;;;5030836;28;20033;-79
2023/04/09 10:34:26;;;;;;;13.15;10.25;;;17.40;99.90;;;;;;5026918;28;20036;-78
2023/04/09 10:36:56;;;;;;;11.15;8.40;;;17.80;99.90;;;;;;5030473;28;20029;-74
2023/04/09 10:39:31;;;;;;;14.35;11.05;;;17.90;99.90;;;;;;5013981;28;20029;-77
2023/04/09 10:42:06;;;;;;;16.25;12.40;;;17.90;99.90;;;;;;5026208;28;20056;-74
2023/04/09 10:44:34;;;;;;;16.35;11.82;;;17.90;99.20;;;;;;5008138;28;20040;-74
2023/04/09 10:47:02;;;;;;;14.52;11.48;;;18.10;99.40;;;;;;5030058;28;20036;-77
2023/04/09 10:49:39;;;;;;;14.15;11.48;;;18.20;98.50;;;;;;5030160;28;20055;-72
2023/04/09 10:52:10;;;;;;;14.15;10.88;;;18.50;97.70;;;;;;5029241;28;20033;-76
2023/04/09 10:54:44;;;;;;;12.70;10.82;;;18.80;96.30;;;;;;5032392;28;20029;-73
2023/04/09 10:57:13;;;;;;;8.90;7.93;;;19.30;96.60;;;;;;5012111;28;20048;-78
2023/04/09 10:59:41;;;;;;;12.25;9.30;;;19.90;95.80;;;;;;5030181;28;20387;-75
2023/04/09 11:02:27;;;;;;;10.32;8.55;;;20.40;93.90;;;;;;5025783;28;20033;-79
2023/04/09 11:05:27;;;;;;;9.55;7.82;;;20.40;92.20;;;;;;5010916;28;20029;-74
2023/04/09 11:08:13;;;;;;;9.13;8.23;;;20.40;91.30;;;;;;5025866;28;20028;-75
2023/04/09 11:10:44;;;;;;;9.98;8.55;;;20.50;89.10;;;;;;5029233;28;20562;-77
2023/04/09 11:13:14;;;;;;;11.85;9.40;;;20.40;87.70;;;;;;5008952;28;20492;-77
2023/04/09 11:15:42;;;;;;;8.40;7.47;;;20.40;86.60;;;;;;5013944;28;20059;-75
2023/04/09 11:18:12;;;;;;;9.98;7.68;;;20.40;87.00;;;;;;5010948;28;20043;-77
2023/04/09 11:20:39;;;;;;;7.88;6.97;;;20.80;86.80;;;;;;5028476;28;20063;-80
2023/04/09 11:23:05;;;;;;;8.27;6.47;;;21.20;83.80;;;;;;5005994;28;20039;-75
2023/04/09 11:25:33;;;;;;;7.10;6.22;;;21.40;82.00;;;;;;5030085;28;20028;-76
2023/04/09 11:28:02;;;;;;;6.90;6.13;;;21.40;80.20;;;;;;5029022;28;20032;-77
2023/04/09 11:30:30;;;;;;;8.63;7.15;;;21.40;78.50;;;;;;5006761;28;20033;-74
2023/04/09 11:32:56;;;;;;;10.00;7.38;;;21.40;77.60;;;;;;4990625;28;20039;-74
2023/04/09 11:35:22;;;;;;;7.25;6.55;;;21.60;76.20;;;;;;5007555;28;20036;-80
2023/04/09 11:37:51;;;;;;;9.07;7.05;;;21.60;74.50;;;;;;5030960;28;20439;-74
2023/04/09 11:40:22;;;;;;;8.30;7.50;;;21.90;75.00;;;;;;5027109;28;20037;-77
2023/04/09 11:42:51;;;;;;;10.07;8.33;;;22.30;73.30;;;;;;5023103;28;20036;-75
2023/04/09 11:45:19;;;;;;;7.80;6.35;;;22.70;70.90;;;;;;4995071;28;20424;-77
2023/04/09 11:47:46;;;;;;;7.72;6.88;;;22.90;70.60;;;;;;5028262;28;20040;-79
2023/04/09 11:50:13;;;;;;;6.53;5.93;;;23.20;70.90;;;;;;5007790;28;20496;-76
2023/04/09 11:52:40;;;;;;;7.78;6.97;;;23.70;70.30;;;;;;5000628;28;20494;-74
2023/04/09 11:55:08;;;;;;;6.10;5.50;;;24.00;68.50;;;;;;5037651;28;20040;-74
2023/04/09 11:57:45;;;;;;;6.95;5.95;;;24.30;67.00;;;;;;5034018;28;20040;-80
2023/04/09 12:00:13;;;;;;;7.30;6.47;;;24.50;65.80;;;;;;5026660;28;20025;-77
2023/04/09 12:02:50;;;;;;;8.63;7.13;;;24.40;64.70;;;;;;5023958;28;20499;-78
2023/04/09 12:05:22;;;;;;;7.13;5.97;;;24.50;60.60;;;;;;5009094;28;20390;-76
2023/04/09 12:07:48;;;;;;;5.10;4.60;;;24.20;60.50;;;;;;4992821;28;20048;-77
2023/04/09 12:10:14;;;;;;;6.60;5.43;;;24.20;61.50;;;;;;5007054;28;20472;-76
2023/04/09 12:12:41;;;;;;;5.93;5.30;;;24.30;61.20;;;;;;5025236;28;20029;-80
2023/04/09 12:15:20;;;;;;;7.85;7.05;;;24.70;61.30;;;;;;5032187;28;20063;-77
2023/04/09 12:17:50;;;;;;;7.60;6.28;;;24.70;58.60;;;;;;5011723;28;20044;-74
2023/04/09 12:20:40;;;;;;;6.95;6.25;;;24.40;58.80;;;;;;5025558;28;20530;-74
2023/04/09 12:23:07;;;;;;;10.05;7.72;;;24.60;59.10;;;;;;5022738;28;20047;-78
2023/04/09 12:25:35;;;;;;;7.53;6.78;;;24.50;58.00;;;;;;5028277;28;20044;-74
2023/04/09 12:28:03;;;;;;;8.75;7.90;;;24.70;59.40;;;;;;4997055;28;20025;-77
2023/04/09 12:30:29;;;;;;;7.80;6.72;;;25.10;59.00;;;;;;5026053;28;20506;-78
2023/04/09 12:32:55;;;;;;;7.07;6.38;;;25.60;58.70;;;;;;5024892;28;20707;-74
2023/04/09 12:35:22;;;;;;;7.95;7.18;;;26.00;57.80;;;;;;5031209;28;20044;-77
2023/04/09 12:37:48;;;;;;;8.32;7.50;;;26.30;58.10;;;;;;5011708;28;20067;-79
2023/04/09 12:40:16;;;;;;;9.05;8.20;;;26.50;56.30;;;;;;5027392;28;20037;-76
2023/04/09 12:42:43;;;;;;;10.52;8.90;;;26.30;55.90;;;;;;5022559;28;20116;-74